createdAt,value
2023-10-10T00:01:03.280Z,2.60
2023-10-10T00:04:07.187Z,2.45
2023-10-10T00:07:10.035Z,3.08
2023-10-10T00:10:14.693Z,3.20
2023-10-10T00:13:21.286Z,2.83
2023-10-10T00:16:28.419Z,2.70
2023-10-10T00:19:31.361Z,3.13
2023-10-10T00:22:36.405Z,3.00
2023-10-10T00:25:39.996Z,2.90
2023-10-10T00:28:46.505Z,3.22
2023-10-10T00:32:14.569Z,2.80
2023-10-10T00:35:19.161Z,3.13
2023-10-10T00:38:26.137Z,2.83
2023-10-10T00:41:29.272Z,2.43
2023-10-10T00:44:32.232Z,3.10
2023-10-10T00:47:40.049Z,2.95
2023-10-10T00:50:43.413Z,3.05
2023-10-10T00:53:46.690Z,2.90
2023-10-10T00:56:55.583Z,3.20
2023-10-10T00:59:58.454Z,2.88
2023-10-10T01:03:22.986Z,2.88
2023-10-10T01:06:27.055Z,3.38
2023-10-10T01:09:36.005Z,3.00
2023-10-10T01:12:40.892Z,3.00
2023-10-10T01:15:46.383Z,2.75
2023-10-10T01:18:58.950Z,3.13
2023-10-10T01:22:05.263Z,3.28
2023-10-10T01:25:28.560Z,2.70
2023-10-10T01:28:37.918Z,3.63
2023-10-10T01:31:43.467Z,3.30
2023-10-10T01:34:46.276Z,2.72
2023-10-10T01:37:56.371Z,2.83
2023-10-10T01:41:06.136Z,2.90
2023-10-10T01:44:24.165Z,2.93
2023-10-10T01:47:28.182Z,3.20
2023-10-10T01:50:35.096Z,2.83
2023-10-10T01:53:41.651Z,3.17
2023-10-10T01:56:44.258Z,3.10
2023-10-10T01:59:47.302Z,3.20
2023-10-10T02:02:51.603Z,3.13
2023-10-10T02:05:57.319Z,3.40
2023-10-10T02:09:18.887Z,3.10
2023-10-10T02:12:23.717Z,3.35
2023-10-10T02:15:34.189Z,2.80
2023-10-10T02:18:41.327Z,3.20
2023-10-10T02:21:46.292Z,2.88
2023-10-10T02:25:10.208Z,2.85
2023-10-10T02:28:19.018Z,3.05
2023-10-10T02:31:22.422Z,3.50
2023-10-10T02:34:26.143Z,2.90
2023-10-10T02:37:43.095Z,3.15
2023-10-10T02:40:52.055Z,3.42
2023-10-10T02:44:02.701Z,3.28
2023-10-10T02:47:06.197Z,3.00
2023-10-10T02:50:12.276Z,2.97
2023-10-10T02:53:16.854Z,3.40
2023-10-10T02:56:20.944Z,3.30
2023-10-10T02:59:25.375Z,2.83
2023-10-10T03:02:31.789Z,3.70
2023-10-10T03:05:41.086Z,3.10
2023-10-10T03:08:53.038Z,3.22
2023-10-10T03:12:04.914Z,2.90
2023-10-10T03:15:29.557Z,3.00
2023-10-10T03:18:36.416Z,3.10
2023-10-10T03:21:48.342Z,3.10
2023-10-10T03:25:22.186Z,3.40
2023-10-10T03:28:29.221Z,3.20
2023-10-10T03:31:43.494Z,2.90
2023-10-10T03:34:56.887Z,2.73
2023-10-10T03:38:20.279Z,3.17
2023-10-10T03:41:38.637Z,3.33
2023-10-10T03:45:00.187Z,3.33
2023-10-10T03:48:21.938Z,3.25
2023-10-10T03:51:43.415Z,3.20
2023-10-10T03:55:04.594Z,3.10
2023-10-10T03:58:45.754Z,3.08
2023-10-10T04:02:07.179Z,3.40
2023-10-10T04:05:28.975Z,3.47
2023-10-10T04:08:50.771Z,3.13
2023-10-10T04:12:12.496Z,3.00
2023-10-10T04:15:34.122Z,3.13
2023-10-10T04:18:55.814Z,3.03
2023-10-10T04:22:17.426Z,2.92
2023-10-10T04:25:38.693Z,2.90
2023-10-10T04:29:00.488Z,2.90
2023-10-10T04:32:21.882Z,2.70
2023-10-10T04:35:43.375Z,3.33
2023-10-10T04:39:04.753Z,3.22
2023-10-10T04:42:26.078Z,2.87
2023-10-10T04:45:47.783Z,3.15
2023-10-10T04:49:08.746Z,3.30
2023-10-10T04:52:30.397Z,2.90
2023-10-10T04:55:52.302Z,3.25
2023-10-10T04:59:14.085Z,2.97
2023-10-10T05:02:36.074Z,3.20
2023-10-10T05:05:57.521Z,3.10
2023-10-10T05:09:18.901Z,3.20
2023-10-10T05:12:40.746Z,3.00
2023-10-10T05:16:06.828Z,3.37
2023-10-10T05:19:35.735Z,2.90
2023-10-10T05:22:57.416Z,3.40
2023-10-10T05:26:00.969Z,3.45
2023-10-10T05:29:04.074Z,3.05
2023-10-10T05:32:10.092Z,3.40
2023-10-10T05:35:13.205Z,4.40
2023-10-10T05:38:18.661Z,6.63
2023-10-10T05:41:23.909Z,6.05
2023-10-10T05:44:27.118Z,5.88
2023-10-10T05:47:30.959Z,5.53
2023-10-10T05:50:34.828Z,5.18
2023-10-10T05:53:37.854Z,5.60
2023-10-10T05:56:42.526Z,4.90
2023-10-10T05:59:45.176Z,4.72
2023-10-10T06:02:47.958Z,4.57
2023-10-10T06:05:51.336Z,5.10
2023-10-10T06:09:01.725Z,5.07
2023-10-10T06:12:05.940Z,5.10
2023-10-10T06:15:09.144Z,5.30
2023-10-10T06:18:15.344Z,5.07
2023-10-10T06:21:22.175Z,4.95
2023-10-10T06:24:28.591Z,4.90
2023-10-10T06:27:34.582Z,5.20
2023-10-10T06:30:39.070Z,5.13
2023-10-10T06:33:43.070Z,5.40
2023-10-10T06:36:51.455Z,5.25
2023-10-10T06:39:57.516Z,5.05
2023-10-10T06:43:09.320Z,5.60
2023-10-10T06:46:18.510Z,4.75
2023-10-10T06:49:22.445Z,4.80
2023-10-10T06:52:25.523Z,5.10
2023-10-10T06:55:46.602Z,4.63
2023-10-10T06:58:50.040Z,4.88
2023-10-10T07:01:53.516Z,5.82
2023-10-10T07:04:57.402Z,4.97
2023-10-10T07:08:13.919Z,4.55
2023-10-10T07:11:21.977Z,5.40
2023-10-10T07:14:28.159Z,4.85
2023-10-10T07:17:33.254Z,4.93
2023-10-10T07:21:05.602Z,4.90
2023-10-10T07:24:15.248Z,5.47
2023-10-10T07:27:19.948Z,4.85
2023-10-10T07:30:35.007Z,4.60
2023-10-10T07:33:41.996Z,4.85
2023-10-10T07:36:51.846Z,5.27
2023-10-10T07:39:57.102Z,4.45
2023-10-10T07:43:01.215Z,4.50
2023-10-10T07:46:24.056Z,4.78
2023-10-10T07:49:28.776Z,5.70
2023-10-10T07:52:37.002Z,5.40
2023-10-10T07:56:01.916Z,4.35
2023-10-10T07:59:07.051Z,5.10
2023-10-10T08:02:26.635Z,5.80
2023-10-10T08:05:35.130Z,11.93
2023-10-10T08:08:38.886Z,11.83
2023-10-10T08:11:41.736Z,8.25
2023-10-10T08:14:44.754Z,7.20
2023-10-10T08:17:53.921Z,5.95
2023-10-10T08:20:57.539Z,6.40
2023-10-10T08:24:00.611Z,7.03
2023-10-10T08:27:11.490Z,6.50
2023-10-10T08:30:15.197Z,6.53
2023-10-10T08:33:18.213Z,6.50
2023-10-10T08:36:27.947Z,6.13
2023-10-10T08:39:36.757Z,6.47
2023-10-10T08:42:41.732Z,6.20
2023-10-10T08:45:45.557Z,5.82
2023-10-10T08:48:50.179Z,6.20
2023-10-10T08:51:54.554Z,5.75
2023-10-10T08:55:06.917Z,5.40
2023-10-10T08:58:11.848Z,4.55
2023-10-10T09:01:15.234Z,4.30
2023-10-10T09:04:23.272Z,4.30
2023-10-10T09:07:32.202Z,4.45
2023-10-10T09:10:41.290Z,4.17
2023-10-10T09:13:52.885Z,3.53
2023-10-10T09:17:00.058Z,3.42
2023-10-10T09:20:22.353Z,3.38
2023-10-10T09:23:29.885Z,3.15
2023-10-10T09:26:38.076Z,2.73
2023-10-10T09:29:44.771Z,2.97
2023-10-10T09:32:50.225Z,2.92
2023-10-10T09:36:15.655Z,2.47
2023-10-10T09:39:41.324Z,2.75
2023-10-10T09:43:05.112Z,3.83
2023-10-10T09:46:20.484Z,4.03
2023-10-10T09:49:42.914Z,3.38
2023-10-10T09:53:00.458Z,3.13
2023-10-10T09:56:10.114Z,3.08
2023-10-10T09:59:15.978Z,3.23
2023-10-10T10:02:39.077Z,3.28
2023-10-10T10:05:44.591Z,2.50
2023-10-10T10:09:22.458Z,2.20
2023-10-10T10:12:54.756Z,2.20
2023-10-10T10:16:26.774Z,4.60
2023-10-10T10:19:29.900Z,5.53
2023-10-10T10:22:33.461Z,5.03
2023-10-10T10:25:38.447Z,4.03
2023-10-10T10:28:44.750Z,3.50
2023-10-10T10:31:59.191Z,3.93
2023-10-10T10:35:02.678Z,4.50
2023-10-10T10:38:08.128Z,3.03
2023-10-10T10:41:19.099Z,3.33
2023-10-10T10:44:46.156Z,2.60
2023-10-10T10:47:55.986Z,2.50
2023-10-10T10:51:05.185Z,2.20
2023-10-10T10:54:09.679Z,2.92
2023-10-10T10:57:39.602Z,2.83
2023-10-10T11:01:00.368Z,2.80
2023-10-10T11:04:06.882Z,2.77
2023-10-10T11:07:16.838Z,2.20
2023-10-10T11:10:36.901Z,2.42
2023-10-10T11:13:40.122Z,2.28
2023-10-10T11:16:47.834Z,2.50
2023-10-10T11:19:56.824Z,1.97
2023-10-10T11:23:13.837Z,1.92
2023-10-10T11:26:17.011Z,2.00
2023-10-10T11:29:28.909Z,2.47
2023-10-10T11:32:48.628Z,3.17
2023-10-10T11:36:02.738Z,2.20
2023-10-10T11:39:18.580Z,1.77
2023-10-10T11:42:36.983Z,1.98
2023-10-10T11:45:42.956Z,2.20
2023-10-10T11:48:48.547Z,1.92
2023-10-10T11:51:54.310Z,2.00
2023-10-10T11:55:06.326Z,2.05
2023-10-10T11:58:18.339Z,2.30
2023-10-10T12:01:43.146Z,2.20
2023-10-10T12:04:46.415Z,2.30
2023-10-10T12:07:49.340Z,2.00
2023-10-10T12:10:53.821Z,2.20
2023-10-10T12:17:15.872Z,2.20
2023-10-10T12:20:19.112Z,2.20
2023-10-10T12:23:30.266Z,1.80
2023-10-10T12:26:40.172Z,2.03
2023-10-10T12:29:43.313Z,1.90
2023-10-10T12:32:53.496Z,2.00
2023-10-10T12:35:58.316Z,1.77
2023-10-10T12:39:01.556Z,2.50
2023-10-10T12:42:04.687Z,2.33
2023-10-10T12:45:08.470Z,2.20
2023-10-10T12:48:18.265Z,2.00
2023-10-10T12:51:25.587Z,2.03
2023-10-10T12:54:36.334Z,2.07
2023-10-10T12:57:40.352Z,2.40
2023-10-10T13:00:51.505Z,1.88
2023-10-10T13:03:55.619Z,2.20
2023-10-10T13:07:04.869Z,2.08
2023-10-10T13:10:11.888Z,2.40
2023-10-10T13:13:27.806Z,1.90
2023-10-10T13:16:45.428Z,2.45
2023-10-10T13:19:50.247Z,1.90
2023-10-10T13:22:54.978Z,1.85
2023-10-10T13:26:00.799Z,2.03
2023-10-10T13:29:04.128Z,2.20
2023-10-10T13:32:08.113Z,2.20
2023-10-10T13:35:12.272Z,2.78
2023-10-10T13:38:15.240Z,2.00
2023-10-10T13:41:24.540Z,2.07
2023-10-10T13:44:27.236Z,2.05
2023-10-10T13:47:30.675Z,1.90
2023-10-10T13:50:43.052Z,2.20
2023-10-10T13:53:47.319Z,1.83
2023-10-10T13:56:51.757Z,2.07
2023-10-10T13:59:56.948Z,2.05
2023-10-10T14:03:07.101Z,2.20
2023-10-10T14:06:11.735Z,2.40
2023-10-10T14:09:33.101Z,2.25
2023-10-10T14:12:37.645Z,2.17
2023-10-10T14:15:45.016Z,1.80
2023-10-10T14:18:52.600Z,2.00
2023-10-10T14:21:55.749Z,2.05
2023-10-10T14:24:58.592Z,1.92
2023-10-10T14:28:01.181Z,1.57
2023-10-10T14:31:05.001Z,1.90
2023-10-10T14:34:07.894Z,1.70
2023-10-10T14:37:26.721Z,1.88
2023-10-10T14:40:34.324Z,1.92
2023-10-10T14:43:37.206Z,1.97
2023-10-10T14:46:42.226Z,1.80
2023-10-10T14:49:44.898Z,1.80
2023-10-10T14:52:50.992Z,2.00
2023-10-10T14:55:54.114Z,1.77
2023-10-10T14:58:56.954Z,1.80
2023-10-10T15:02:01.128Z,2.08
2023-10-10T15:05:10.803Z,2.17
2023-10-10T15:08:20.705Z,2.00
2023-10-10T15:11:28.861Z,1.80
2023-10-10T15:14:33.865Z,2.30
2023-10-10T15:17:39.699Z,2.10
2023-10-10T15:20:49.706Z,1.90
2023-10-10T15:23:54.411Z,2.10
2023-10-10T15:26:57.959Z,1.95
2023-10-10T15:30:00.733Z,1.50
2023-10-10T15:33:07.262Z,2.40
2023-10-10T15:36:12.997Z,1.80
2023-10-10T15:39:15.981Z,2.42
2023-10-10T15:42:19.770Z,1.80
2023-10-10T15:45:22.945Z,2.13
2023-10-10T15:48:27.130Z,1.92
2023-10-10T15:51:31.531Z,1.88
2023-10-10T15:54:37.446Z,1.90
2023-10-10T15:57:40.631Z,1.80
2023-10-10T16:00:44.840Z,2.33
2023-10-10T16:03:49.012Z,2.00
2023-10-10T16:06:52.043Z,2.22
2023-10-10T16:09:55.060Z,1.70
2023-10-10T16:12:57.659Z,1.70
2023-10-10T16:16:00.396Z,1.77
2023-10-10T16:19:05.697Z,1.70
2023-10-10T16:22:08.584Z,2.08
2023-10-10T16:25:14.744Z,1.65
2023-10-10T16:28:23.441Z,1.60
2023-10-10T16:31:32.784Z,1.60
2023-10-10T16:34:41.506Z,1.63
2023-10-10T16:37:46.738Z,1.60
2023-10-10T16:40:51.605Z,1.70
2023-10-10T16:44:01.414Z,1.85
2023-10-10T16:47:05.213Z,2.07
2023-10-10T16:50:08.356Z,1.70
2023-10-10T16:53:12.977Z,1.88
2023-10-10T16:56:16.295Z,2.00
2023-10-10T16:59:19.864Z,1.83
2023-10-10T17:02:29.654Z,1.80
2023-10-10T17:05:37.668Z,2.05
2023-10-10T17:08:44.954Z,1.70
2023-10-10T17:11:52.077Z,1.85
2023-10-10T17:14:58.343Z,1.73
2023-10-10T17:18:02.505Z,2.10
2023-10-10T17:21:05.613Z,2.03
2023-10-10T17:24:09.862Z,1.90
2023-10-10T17:27:13.955Z,1.80
2023-10-10T17:30:20.396Z,1.55
2023-10-10T17:33:26.243Z,1.67
2023-10-10T17:36:31.893Z,1.98
2023-10-10T17:39:36.329Z,1.90
2023-10-10T17:42:47.566Z,1.65
2023-10-10T17:45:52.277Z,1.80
2023-10-10T17:48:59.262Z,1.77
2023-10-10T17:52:02.958Z,1.90
2023-10-10T17:55:05.791Z,1.80
2023-10-10T17:58:09.469Z,1.77
2023-10-10T18:01:12.269Z,1.80
2023-10-10T18:04:16.482Z,1.80
2023-10-10T18:07:23.519Z,1.95
2023-10-10T18:10:26.289Z,2.13
2023-10-10T18:13:29.290Z,2.13
2023-10-10T18:16:35.372Z,1.80
2023-10-10T18:19:41.570Z,1.80
2023-10-10T18:22:45.852Z,1.90
2023-10-10T18:25:48.885Z,1.75
2023-10-10T18:28:53.642Z,1.80
2023-10-10T18:31:59.518Z,1.75
2023-10-10T18:35:02.593Z,1.43
2023-10-10T18:38:07.109Z,1.77
2023-10-10T18:41:09.741Z,1.70
2023-10-10T18:44:17.256Z,1.77
2023-10-10T18:47:20.280Z,1.60
2023-10-10T18:50:23.131Z,1.60
2023-10-10T18:53:27.330Z,1.50
2023-10-10T18:56:29.936Z,1.90
2023-10-10T18:59:33.354Z,2.30
2023-10-10T19:02:36.160Z,1.90
2023-10-10T19:05:40.724Z,1.60
2023-10-10T19:08:45.540Z,1.65
2023-10-10T19:11:48.481Z,1.80
2023-10-10T19:14:51.405Z,1.80
2023-10-10T19:18:00.526Z,1.85
2023-10-10T19:21:11.001Z,2.03
2023-10-10T19:24:15.880Z,1.58
2023-10-10T19:27:22.167Z,1.73
2023-10-10T19:30:34.160Z,1.83
2023-10-10T19:33:36.923Z,1.83
2023-10-10T19:36:39.913Z,1.90
2023-10-10T19:39:42.426Z,1.80
2023-10-10T19:42:52.046Z,1.77
2023-10-10T19:45:54.527Z,1.90
2023-10-10T19:48:57.651Z,1.70
2023-10-10T19:52:00.446Z,1.90
2023-10-10T19:55:17.101Z,1.67
2023-10-10T19:58:24.510Z,1.67
2023-10-10T20:01:27.158Z,1.60
2023-10-10T20:04:29.919Z,1.67
2023-10-10T20:07:34.580Z,1.80
2023-10-10T20:10:39.434Z,1.88
2023-10-10T20:13:42.281Z,1.70
2023-10-10T20:16:46.741Z,1.85
2023-10-10T20:19:51.811Z,1.50
2023-10-10T20:22:58.043Z,1.83
2023-10-10T20:26:00.546Z,2.00
2023-10-10T20:29:03.041Z,1.83
2023-10-10T20:32:07.871Z,1.80
2023-10-10T20:35:17.098Z,1.85
2023-10-10T20:38:21.077Z,1.67
2023-10-10T20:41:24.135Z,1.77
2023-10-10T20:44:26.785Z,1.55
2023-10-10T20:47:29.342Z,1.95
2023-10-10T20:50:34.409Z,1.77
2023-10-10T20:53:37.385Z,1.97
2023-10-10T20:56:40.000Z,2.10
2023-10-10T20:59:43.860Z,1.80
2023-10-10T21:02:51.924Z,1.67
2023-10-10T21:05:54.945Z,1.77
2023-10-10T21:08:59.824Z,2.10
2023-10-10T21:12:08.541Z,1.88
2023-10-10T21:15:16.917Z,1.67
2023-10-10T21:18:22.856Z,2.00
2023-10-10T21:21:26.471Z,1.88
2023-10-10T21:24:29.259Z,1.80
2023-10-10T21:27:32.530Z,1.70
2023-10-10T21:30:39.328Z,1.65
2023-10-10T21:33:45.194Z,1.70
2023-10-10T21:36:48.287Z,1.60
2023-10-10T21:39:51.580Z,1.93
2023-10-10T21:42:56.380Z,1.80
2023-10-10T21:45:59.510Z,1.60
2023-10-10T21:49:02.266Z,2.05
2023-10-10T21:52:07.064Z,1.80
2023-10-10T21:55:13.579Z,1.67
2023-10-10T21:58:16.387Z,1.98
2023-10-10T22:01:19.255Z,1.80
2023-10-10T22:04:22.804Z,1.63
2023-10-10T22:07:29.960Z,1.70
2023-10-10T22:10:34.471Z,2.00
2023-10-10T22:13:37.878Z,1.55
2023-10-10T22:16:44.871Z,1.70
2023-10-10T22:19:50.326Z,1.60
2023-10-10T22:22:56.062Z,1.88
2023-10-10T22:26:03.095Z,1.50
2023-10-10T22:29:06.012Z,1.60
2023-10-10T22:32:08.852Z,1.60
2023-10-10T22:35:12.748Z,1.60
2023-10-10T22:38:15.742Z,2.00
2023-10-10T22:41:19.984Z,2.10
2023-10-10T22:44:23.175Z,1.88
2023-10-10T22:47:26.165Z,1.80
2023-10-10T22:50:31.861Z,1.80
2023-10-10T22:53:34.577Z,2.30
2023-10-10T22:56:37.243Z,2.07
2023-10-10T22:59:40.202Z,1.90
2023-10-10T23:02:45.706Z,1.90
2023-10-10T23:05:48.703Z,1.73
2023-10-10T23:08:51.708Z,1.80
2023-10-10T23:11:55.117Z,1.70
2023-10-10T23:14:58.189Z,1.80
2023-10-10T23:18:02.091Z,1.85
2023-10-10T23:21:09.115Z,2.00
2023-10-10T23:24:13.191Z,1.80
2023-10-10T23:27:16.068Z,1.77
2023-10-10T23:30:22.084Z,1.92
2023-10-10T23:33:25.225Z,1.83
2023-10-10T23:36:27.816Z,2.10
2023-10-10T23:39:35.097Z,1.88
2023-10-10T23:42:37.948Z,1.90
2023-10-10T23:45:44.276Z,1.92
2023-10-10T23:48:48.718Z,1.90
2023-10-10T23:51:51.419Z,1.88
2023-10-10T23:54:54.272Z,1.85
2023-10-10T23:58:01.444Z,1.73
